Time,TemperatureF,DewpointF,PressureIn,WindDirection,WindDirectionDegrees,WindSpeedMPH,WindSpeedGustMPH,Humidity,HourlyPrecipIn,Conditions,Clouds,dailyrainin,SoftwareType,DateUTC
2013-01-24 00:00:00,10.8,-7.9,30.37,NW,315,6.0,12.7,42,0.00,CLR,FEW,0.00,WeatherDisplay:10.37,2013-01-24 06:00:00,
2013-01-24 00:05:00,10.8,-5.1,30.38,North,0,5.4,12.7,48,0.00,CLR,FEW,0.00,WeatherDisplay:10.37,2013-01-24 06:05:00,
2013-01-24 00:11:00,10.6,-5.3,30.39,NE,45,7.6,17.3,48,0.00,CLR,FEW,0.00,WeatherDisplay:10.37,2013-01-24 06:11:00,
2013-01-24 00:16:00,10.4,-7.7,30.39,West,270,3.8,10.4,43,0.00,CLR,FEW,0.00,WeatherDisplay:10.37,2013-01-24 06:16:00,
2013-01-24 00:22:00,10.4,-7.7,30.40,NW,315,5.4,8.3,43,0.00,CLR,FEW,0.00,WeatherDisplay:10.37,2013-01-24 06:22:00,
2013-01-24 00:28:00,10.0,-5.8,30.40,NW,315,6.9,10.4,48,0.00,CLR,FEW,0.00,WeatherDisplay:10.37,2013-01-24 06:28:00,
2013-01-24 00:33:00,9.9,-5.9,30.41,NE,45,3.1,9.2,48,0.00,CLR,FEW,0.00,WeatherDisplay:10.37,2013-01-24 06:33:00,
2013-01-24 00:39:00,9.9,-5.9,30.41,North,0,5.4,11.5,48,0.00,CLR,FEW,0.00,WeatherDisplay:10.37,2013-01-24 06:39:00,
2013-01-24 00:44:00,9.5,-6.3,30.41,North,0,6.0,10.4,48,0.00,CLR,FEW,0.00,WeatherDisplay:10.37,2013-01-24 06:44:00,
2013-01-24 00:50:00,9.3,-6.4,30.41,NW,315,4.5,9.2,48,0.00,CLR,FEW,0.00,WeatherDisplay:10.37,2013-01-24 06:50:00,
2013-01-24 00:56:00,9.3,-8.2,30.42,North,0,3.1,10.4,44,0.00,CLR,FEW,0.00,WeatherDisplay:10.37,2013-01-24 06:56:00,
2013-01-24 01:01:00,9.0,-8.6,30.42,North,0,5.4,11.4,44,0.00,CLR,FEW,0.00,WeatherDisplay:10.37,2013-01-24 07:01:00,
2013-01-24 01:07:00,8.8,-8.7,30.42,North,0,5.4,10.4,44,0.00,CLR,FEW,0.00,WeatherDisplay:10.37,2013-01-24 07:07:00,
2013-01-24 01:12:00,8.8,-8.3,30.42,North,0,6.9,12.7,45,0.00,CLR,FEW,0.00,WeatherDisplay:10.37,2013-01-24 07:12:00,
2013-01-24 01:18:00,8.6,-8.4,30.42,North,0,8.3,13.8,45,0.00,CLR,FEW,0.00,WeatherDisplay:10.37,2013-01-24 07:18:00,
2013-01-24 01:24:00,8.4,-9.1,30.43,NE,45,6.0,12.1,44,0.00,CLR,FEW,0.00,WeatherDisplay:10.37,2013-01-24 07:24:00,
2013-01-24 02:48:00,6.6,-10.7,30.46,North,0,3.8,15.0,44,0.00,CLR,FEW,0.00,WeatherDisplay:10.37,2013-01-24 08:48:00,
2013-01-24 02:53:00,6.4,-10.4,30.47,North,0,4.5,9.2,45,0.00,CLR,FEW,0.00,WeatherDisplay:10.37,2013-01-24 08:53:00,
2013-01-24 02:59:00,6.4,-10.4,30.47,North,0,3.8,9.2,45,0.00,CLR,FEW,0.00,WeatherDisplay:10.37,2013-01-24 08:59:00,
2013-01-24 03:04:00,6.3,-11.0,30.47,NW,315,5.4,9.8,44,0.00,CLR,FEW,0.00,WeatherDisplay:10.37,2013-01-24 09:04:00,
2013-01-24 03:10:00,6.3,-11.0,30.48,North,0,4.5,6.9,44,0.00,CLR,FEW,0.00,WeatherDisplay:10.37,2013-01-24 09:10:00,
2013-01-24 03:16:00,6.1,-11.2,30.48,North,0,2.2,8.1,44,0.00,CLR,FEW,0.00,WeatherDisplay:10.37,2013-01-24 09:16:00,
2013-01-24 03:21:00,5.9,-11.4,30.49,West,270,3.1,10.4,44,0.00,CLR,FEW,0.00,WeatherDisplay:10.37,2013-01-24 09:21:00,
2013-01-24 03:27:00,6.1,-11.2,30.49,North,0,2.2,5.8,44,0.00,CLR,FEW,0.00,WeatherDisplay:10.37,2013-01-24 09:27:00,
2013-01-24 03:32:00,5.7,-11.5,30.49,North,0,1.6,3.5,44,0.00,CLR,FEW,0.00,WeatherDisplay:10.37,2013-01-24 09:32:00,
2013-01-24 03:38:00,5.7,-11.5,30.49,North,0,6.0,10.7,44,0.00,CLR,FEW,0.00,WeatherDisplay:10.37,2013-01-24 09:38:00,
2013-01-24 03:44:00,5.5,-11.7,30.49,North,0,6.0,13.7,44,0.00,CLR,FEW,0.00,WeatherDisplay:10.37,2013-01-24 09:44:00,
2013-01-24 03:49:00,5.5,-11.7,30.49,North,0,1.6,5.8,44,0.00,CLR,FEW,0.00,WeatherDisplay:10.37,2013-01-24 09:49:00,
2013-01-24 03:55:00,5.5,-11.7,30.49,North,0,3.8,6.9,44,0.00,CLR,FEW,0.00,WeatherDisplay:10.37,2013-01-24 09:55:00,
2013-01-24 04:00:00,5.4,-12.3,30.49,North,0,7.6,12.1,43,0.00,CLR,FEW,0.00,WeatherDisplay:10.37,2013-01-24 10:00:00,
2013-01-24 04:06:00,5.2,-12.0,30.49,North,0,3.1,8.1,44,0.00,CLR,FEW,0.00,WeatherDisplay:10.37,2013-01-24 10:06:00,
2013-01-24 04:12:00,5.2,-12.5,30.50,NW,315,5.4,8.3,43,0.00,CLR,FEW,0.00,WeatherDisplay:10.37,2013-01-24 10:12:00,
2013-01-24 04:17:00,5.0,-12.7,30.50,WNW,292,4.5,12.7,43,0.00,CLR,FEW,0.00,WeatherDisplay:10.37,2013-01-24 10:17:00,
2013-01-24 04:23:00,5.0,-12.2,30.51,NE,45,1.6,5.8,44,0.00,CLR,FEW,0.00,WeatherDisplay:10.37,2013-01-24 10:23:00,
2013-01-24 04:28:00,5.0,-12.2,30.52,North,0,3.1,6.9,44,0.00,CLR,FEW,0.00,WeatherDisplay:10.37,2013-01-24 10:28:00,
2013-01-24 04:34:00,4.8,-12.4,30.51,NNW,338,3.1,8.1,44,0.00,CLR,FEW,0.00,WeatherDisplay:10.37,2013-01-24 10:34:00,
2013-01-24 04:40:00,4.8,-12.4,30.50,North,0,3.8,10.4,44,0.00,CLR,FEW,0.00,WeatherDisplay:10.37,2013-01-24 10:40:00,
2013-01-24 04:45:00,4.6,-13.0,30.50,East,90,2.2,9.2,43,0.00,CLR,FEW,0.00,WeatherDisplay:10.37,2013-01-24 10:45:00,
2013-01-24 04:51:00,4.5,-12.7,30.51,WNW,292,4.5,10.4,44,0.00,CLR,FEW,0.00,WeatherDisplay:10.37,2013-01-24 10:51:00,
2013-01-24 04:56:00,4.5,-13.2,30.51,North,0,4.5,10.4,43,0.00,CLR,FEW,0.00,WeatherDisplay:10.37,2013-01-24 10:56:00,
2013-01-24 05:02:00,4.5,-12.7,30.51,East,90,2.2,8.1,44,0.00,CLR,FEW,0.00,WeatherDisplay:10.37,2013-01-24 11:02:00,
2013-01-24 05:08:00,4.5,-12.7,30.51,NE,45,3.8,6.0,44,0.00,CLR,FEW,0.00,WeatherDisplay:10.37,2013-01-24 11:08:00,
2013-01-24 05:13:00,4.5,-12.7,30.51,NE,45,3.8,5.8,44,0.00,CLR,FEW,0.00,WeatherDisplay:10.37,2013-01-24 11:13:00,
2013-01-24 05:19:00,4.3,-12.9,30.52,West,270,2.2,5.8,44,0.00,CLR,FEW,0.00,WeatherDisplay:10.37,2013-01-24 11:19:00,
2013-01-24 05:24:00,4.3,-12.9,30.53,NW,315,3.8,6.0,44,0.00,CLR,FEW,0.00,WeatherDisplay:10.37,2013-01-24 11:24:00,
2013-01-24 05:30:00,4.1,-13.0,30.52,North,0,6.0,10.4,44,0.00,CLR,FEW,0.00,WeatherDisplay:10.37,2013-01-24 11:30:00,
2013-01-24 05:36:00,4.3,-12.4,30.53,NW,315,2.2,5.8,45,0.00,CLR,FEW,0.00,WeatherDisplay:10.37,2013-01-24 11:36:00,
2013-01-24 05:41:00,4.1,-13.0,30.52,WSW,248,1.6,9.2,44,0.00,CLR,FEW,0.00,WeatherDisplay:10.37,2013-01-24 11:41:00,
2013-01-24 05:47:00,3.9,-13.2,30.52,North,0,2.2,5.8,44,0.00,CLR,FEW,0.00,WeatherDisplay:10.37,2013-01-24 11:47:00,
2013-01-24 05:52:00,3.9,-12.7,30.52,NW,315,2.2,5.8,45,0.00,CLR,FEW,0.00,WeatherDisplay:10.37,2013-01-24 11:52:00,
2013-01-24 05:58:00,3.7,-13.4,30.53,NE,45,2.2,5.8,44,0.00,CLR,FEW,0.00,WeatherDisplay:10.37,2013-01-24 11:58:00,
2013-01-24 06:04:00,3.7,-12.9,30.52,NW,315,3.8,10.4,45,0.00,CLR,FEW,0.00,WeatherDisplay:10.37,2013-01-24 12:04:00,
2013-01-24 06:09:00,3.7,-13.4,30.52,NE,45,2.2,5.8,44,0.00,CLR,FEW,0.00,WeatherDisplay:10.37,2013-01-24 12:09:00,
2013-01-24 06:15:00,3.9,-12.7,30.53,North,0,2.2,5.8,45,0.00,CLR,FEW,0.00,WeatherDisplay:10.37,2013-01-24 12:15:00,
2013-01-24 06:20:00,3.7,-12.9,30.54,North,0,1.6,5.8,45,0.00,CLR,FEW,0.00,WeatherDisplay:10.37,2013-01-24 12:20:00,
2013-01-24 06:26:00,3.9,-13.2,30.53,NE,45,0.7,4.6,44,0.00,CLR,FEW,0.00,WeatherDisplay:10.37,2013-01-24 12:26:00,
2013-01-24 06:32:00,4.1,-12.6,30.53,NW,315,1.6,6.9,45,0.00,CLR,FEW,0.00,WeatherDisplay:10.37,2013-01-24 12:32:00,
2013-01-24 06:37:00,3.9,-12.7,30.53,NE,45,3.8,8.1,45,0.00,CLR,FEW,0.00,WeatherDisplay:10.37,2013-01-24 12:37:00,
2013-01-24 06:43:00,3.7,-13.4,30.53,ENE,68,3.1,8.1,44,0.00,CLR,FEW,0.00,WeatherDisplay:10.37,2013-01-24 12:43:00,
2013-01-24 06:48:00,3.7,-13.4,30.53,NE,45,0.0,2.3,44,0.00,CLR,FEW,0.00,WeatherDisplay:10.37,2013-01-24 12:48:00,
2013-01-24 06:54:00,3.9,-13.2,30.54,North,0,0.7,3.5,44,0.00,CLR,FEW,0.00,WeatherDisplay:10.37,2013-01-24 12:54:00,
2013-01-24 07:00:00,4.1,-12.6,30.54,North,0,4.5,7.6,45,0.00,CLR,FEW,0.00,WeatherDisplay:10.37,2013-01-24 13:00:00,
2013-01-24 07:05:00,3.9,-11.9,30.54,North,0,2.2,5.8,47,0.00,CLR,FEW,0.00,WeatherDisplay:10.37,2013-01-24 13:05:00,
2013-01-24 07:11:00,4.1,-11.7,30.55,North,0,0.7,4.6,47,0.00,CLR,FEW,0.00,WeatherDisplay:10.37,2013-01-24 13:11:00,
2013-01-24 07:16:00,4.1,-12.6,30.54,NW,315,0.0,3.5,45,0.00,CLR,FEW,0.00,WeatherDisplay:10.37,2013-01-24 13:16:00,
2013-01-24 07:22:00,4.3,-11.5,30.54,NE,45,3.8,5.8,47,0.00,CLR,FEW,0.00,WeatherDisplay:10.37,2013-01-24 13:22:00,
2013-01-24 07:28:00,4.3,-12.9,30.53,SW,225,2.2,4.6,44,0.00,CLR,FEW,0.00,WeatherDisplay:10.37,2013-01-24 13:28:00,
2013-01-24 07:33:00,4.3,-12.9,30.53,North,0,3.1,6.0,44,0.00,CLR,FEW,0.00,WeatherDisplay:10.37,2013-01-24 13:33:00,
2013-01-24 07:39:00,4.3,-12.9,30.54,NE,45,3.1,5.8,44,0.00,CLR,FEW,0.00,WeatherDisplay:10.37,2013-01-24 13:39:00,
2013-01-24 07:44:00,4.5,-12.7,30.55,NNE,22,2.2,5.8,44,0.00,CLR,FEW,0.00,WeatherDisplay:10.37,2013-01-24 13:44:00,
2013-01-24 07:50:00,4.6,-11.2,30.56,North,0,3.8,5.8,47,0.00,CLR,FEW,0.00,WeatherDisplay:10.37,2013-01-24 13:50:00,
2013-01-24 07:56:00,4.8,-11.0,30.56,NW,315,5.4,10.4,47,0.00,CLR,FEW,0.00,WeatherDisplay:10.37,2013-01-24 13:56:00,
2013-01-24 08:01:00,4.8,-13.8,30.56,East,90,1.6,5.8,41,0.00,CLR,FEW,0.00,WeatherDisplay:10.37,2013-01-24 14:01:00,
2013-01-24 08:07:00,5.0,-13.6,30.56,North,0,3.1,5.8,41,0.00,CLR,FEW,0.00,WeatherDisplay:10.37,2013-01-24 14:07:00,
2013-01-24 08:12:00,5.2,-12.5,30.56,NE,45,1.6,6.9,43,0.00,CLR,FEW,0.00,WeatherDisplay:10.37,2013-01-24 14:12:00,
2013-01-24 08:18:00,5.2,-13.0,30.57,East,90,3.1,5.8,42,0.00,CLR,FEW,0.00,WeatherDisplay:10.37,2013-01-24 14:18:00,
2013-01-24 08:24:00,5.2,-13.0,30.57,SE,135,1.6,5.8,42,0.00,CLR,FEW,0.00,WeatherDisplay:10.37,2013-01-24 14:24:00,
2013-01-24 08:29:00,5.5,-13.1,30.58,East,90,3.1,5.8,41,0.00,CLR,FEW,0.00,WeatherDisplay:10.37,2013-01-24 14:29:00,
2013-01-24 08:35:00,5.7,-12.5,30.58,SE,135,1.6,5.8,42,0.00,CLR,FEW,0.00,WeatherDisplay:10.37,2013-01-24 14:35:00,
2013-01-24 08:40:00,5.7,-13.0,30.58,NE,45,2.2,5.8,41,0.00,CLR,FEW,0.00,WeatherDisplay:10.37,2013-01-24 14:40:00,
2013-01-24 08:46:00,6.3,-12.5,30.59,NE,45,3.8,6.0,41,0.00,CLR,FEW,0.00,WeatherDisplay:10.37,2013-01-24 14:46:00,
2013-01-24 08:52:00,6.3,-13.0,30.58,NE,45,2.2,4.6,40,0.00,CLR,FEW,0.00,WeatherDisplay:10.37,2013-01-24 14:52:00,
2013-01-24 08:57:00,6.3,-12.5,30.59,East,90,0.7,5.8,41,0.00,CLR,FEW,0.00,WeatherDisplay:10.37,2013-01-24 14:57:00,
2013-01-24 09:03:00,6.4,-12.3,30.58,ENE,68,2.2,5.8,41,0.00,CLR,FEW,0.00,WeatherDisplay:10.37,2013-01-24 15:03:00,
2013-01-24 09:08:00,6.6,-12.6,30.58,East,90,3.8,6.9,40,0.00,CLR,FEW,0.00,WeatherDisplay:10.37,2013-01-24 15:08:00,
2013-01-24 09:14:00,7.0,-11.8,30.58,NE,45,2.2,5.8,41,0.00,CLR,FEW,0.00,WeatherDisplay:10.37,2013-01-24 15:14:00,
2013-01-24 09:20:00,7.2,-11.6,30.59,NE,45,3.8,5.8,41,0.00,CLR,FEW,0.00,WeatherDisplay:10.37,2013-01-24 15:20:00,
2013-01-24 09:25:00,7.3,-12.0,30.58,South,180,0.7,8.1,40,0.00,CLR,FEW,0.00,WeatherDisplay:10.37,2013-01-24 15:25:00,
2013-01-24 09:31:00,7.9,-11.0,30.58,NE,45,3.1,5.8,41,0.00,CLR,FEW,0.00,WeatherDisplay:10.37,2013-01-24 15:31:00,
2013-01-24 09:36:00,7.9,-12.0,30.57,ENE,68,1.6,5.8,39,0.00,CLR,FEW,0.00,WeatherDisplay:10.37,2013-01-24 15:36:00,
2013-01-24 09:42:00,7.9,-11.0,30.58,North,0,3.1,6.9,41,0.00,CLR,FEW,0.00,WeatherDisplay:10.37,2013-01-24 15:42:00,
2013-01-24 09:48:00,8.8,-11.2,30.57,North,0,3.1,6.0,39,0.00,CLR,FEW,0.00,WeatherDisplay:10.37,2013-01-24 15:48:00,
2013-01-24 09:53:00,8.8,-10.2,30.56,SE,135,1.6,5.8,41,0.00,CLR,FEW,0.00,WeatherDisplay:10.37,2013-01-24 15:53:00,
2013-01-24 09:59:00,9.0,-11.5,30.56,SE,135,2.2,4.6,38,0.00,CLR,FEW,0.00,WeatherDisplay:10.37,2013-01-24 15:59:00,
2013-01-24 10:04:00,9.3,-10.7,30.56,SE,135,4.5,8.1,39,0.00,CLR,FEW,0.00,WeatherDisplay:10.37,2013-01-24 16:04:00,
2013-01-24 10:10:00,9.3,-10.7,30.55,East,90,2.2,5.8,39,0.00,CLR,FEW,0.00,WeatherDisplay:10.37,2013-01-24 16:10:00,
2013-01-24 10:16:00,9.9,-11.3,30.56,East,90,1.6,2.3,37,0.00,CLR,FEW,0.00,WeatherDisplay:10.37,2013-01-24 16:16:00,
2013-01-24 10:21:00,10.4,-11.3,30.56,NE,45,1.6,8.1,36,0.00,CLR,FEW,0.00,WeatherDisplay:10.37,2013-01-24 16:21:00,
2013-01-24 10:27:00,10.4,-11.9,30.56,NE,45,2.2,6.9,35,0.00,CLR,FEW,0.00,WeatherDisplay:10.37,2013-01-24 16:27:00,
2013-01-24 10:32:00,10.6,-9.5,30.56,North,0,1.6,4.6,39,0.00,CLR,FEW,0.00,WeatherDisplay:10.37,2013-01-24 16:32:00,
2013-01-24 10:38:00,11.1,-9.1,30.56,East,90,3.1,4.6,39,0.00,CLR,FEW,0.00,WeatherDisplay:10.37,2013-01-24 16:38:00,
2013-01-24 10:44:00,11.7,-11.4,30.57,NE,45,3.1,5.4,34,0.00,CLR,FEW,0.00,WeatherDisplay:10.37,2013-01-24 16:44:00,
2013-01-24 10:49:00,11.8,-11.2,30.57,SE,135,3.1,6.9,34,0.00,CLR,FEW,0.00,WeatherDisplay:10.37,2013-01-24 16:49:00,
2013-01-24 10:55:00,11.8,-8.4,30.56,East,90,0.0,2.3,39,0.00,CLR,FEW,0.00,WeatherDisplay:10.37,2013-01-24 16:55:00,
2013-01-24 11:00:00,12.6,-7.8,30.55,SE,135,0.7,3.5,39,0.00,CLR,FEW,0.00,WeatherDisplay:10.37,2013-01-24 17:00:00,
2013-01-24 11:06:00,13.5,-9.2,30.56,SE,135,0.0,1.1,35,0.00,CLR,FEW,0.00,WeatherDisplay:10.37,2013-01-24 17:06:00,
2013-01-24 11:12:00,13.5,-10.4,30.55,NW,315,0.7,3.5,33,0.00,CLR,FEW,0.00,WeatherDisplay:10.37,2013-01-24 17:12:00,
2013-01-24 11:17:00,14.0,-9.9,30.55,North,0,0.0,1.1,33,0.00,CLR,FEW,0.00,WeatherDisplay:10.37,2013-01-24 17:17:00,
2013-01-24 11:23:00,14.4,-10.2,30.54,NE,45,0.7,3.5,32,0.00,CLR,FEW,0.00,WeatherDisplay:10.37,2013-01-24 17:23:00,
2013-01-24 11:28:00,14.0,-9.9,30.53,ESE,112,2.2,5.8,33,0.00,CLR,FEW,0.00,WeatherDisplay:10.37,2013-01-24 17:28:00,
2013-01-24 11:34:00,14.2,-8.5,30.53,SE,135,1.6,5.8,35,0.00,CLR,FEW,0.00,WeatherDisplay:10.37,2013-01-24 17:34:00,
2013-01-24 11:40:00,14.5,-10.7,30.53,NE,45,0.7,2.3,31,0.00,CLR,FEW,0.00,WeatherDisplay:10.37,2013-01-24 17:40:00,
2013-01-24 11:45:00,14.5,-11.3,30.52,South,180,0.0,5.8,30,0.00,CLR,FEW,0.00,WeatherDisplay:10.37,2013-01-24 17:45:00,
2013-01-24 11:51:00,15.4,-9.9,30.53,South,180,0.0,0.0,31,0.00,CLR,FEW,0.00,WeatherDisplay:10.37,2013-01-24 17:51:00,
2013-01-24 11:56:00,15.8,-7.1,30.53,North,0,0.7,2.3,35,0.00,CLR,FEW,0.00,WeatherDisplay:10.37,2013-01-24 17:56:00,
2013-01-24 12:02:00,15.8,-10.2,30.53,NE,45,2.2,4.6,30,0.00,CLR,FEW,0.00,WeatherDisplay:10.37,2013-01-24 18:02:00,
2013-01-24 12:08:00,15.4,-10.5,30.52,East,90,1.6,3.5,30,0.00,CLR,FEW,0.00,WeatherDisplay:10.37,2013-01-24 18:08:00,
2013-01-24 12:13:00,15.3,-11.4,30.52,East,90,0.0,3.5,29,0.00,CLR,FEW,0.00,WeatherDisplay:10.37,2013-01-24 18:13:00,
2013-01-24 12:19:00,16.0,-10.1,30.52,East,90,0.7,3.5,30,0.00,CLR,FEW,0.00,WeatherDisplay:10.37,2013-01-24 18:19:00,
2013-01-24 12:24:00,16.7,-11.6,30.52,ESE,112,2.2,5.8,27,0.00,CLR,FEW,0.00,WeatherDisplay:10.37,2013-01-24 18:24:00,
2013-01-24 12:30:00,16.5,-9.6,30.51,North,0,0.7,3.5,30,0.00,CLR,FEW,0.00,WeatherDisplay:10.37,2013-01-24 18:30:00,
2013-01-24 12:36:00,16.7,-11.6,30.50,SE,135,0.0,3.5,27,0.00,CLR,FEW,0.00,WeatherDisplay:10.37,2013-01-24 18:36:00,
2013-01-24 12:41:00,16.3,-9.7,30.50,East,90,1.6,5.8,30,0.00,CLR,FEW,0.00,WeatherDisplay:10.37,2013-01-24 18:41:00,
2013-01-24 12:47:00,16.5,-12.5,30.51,NE,45,1.6,4.6,26,0.00,CLR,FEW,0.00,WeatherDisplay:10.37,2013-01-24 18:47:00,
2013-01-24 12:52:00,16.5,-12.5,30.50,SE,135,2.2,8.1,26,0.00,CLR,FEW,0.00,WeatherDisplay:10.37,2013-01-24 18:52:00,
2013-01-24 12:58:00,16.9,-12.2,30.50,South,180,1.6,3.8,26,0.00,CLR,FEW,0.00,WeatherDisplay:10.37,2013-01-24 18:58:00,
2013-01-24 13:04:00,17.1,-12.0,30.50,East,90,0.0,2.3,26,0.00,CLR,FEW,0.00,WeatherDisplay:10.37,2013-01-24 19:04:00,
2013-01-24 13:09:00,17.4,-11.7,30.49,SW,225,0.0,4.6,26,0.00,CLR,FEW,0.00,WeatherDisplay:10.37,2013-01-24 19:09:00,
2013-01-24 13:15:00,17.4,-11.7,30.50,SE,135,1.6,3.5,26,0.00,CLR,FEW,0.00,WeatherDisplay:10.37,2013-01-24 19:15:00,
2013-01-24 13:20:00,18.1,-10.3,30.49,East,90,0.0,1.1,27,0.00,CLR,FEW,0.00,WeatherDisplay:10.37,2013-01-24 19:20:00,
2013-01-24 13:26:00,18.1,-12.7,30.48,SSE,158,1.6,5.8,24,0.00,CLR,FEW,0.00,WeatherDisplay:10.37,2013-01-24 19:26:00,
2013-01-24 13:32:00,18.3,-10.9,30.48,South,180,1.6,3.5,26,0.00,CLR,FEW,0.00,WeatherDisplay:10.37,2013-01-24 19:32:00,
2013-01-24 13:37:00,19.0,-10.3,30.48,NE,45,0.0,2.3,26,0.00,CLR,FEW,0.00,WeatherDisplay:10.37,2013-01-24 19:37:00,
2013-01-24 13:43:00,19.0,-10.3,30.47,SW,225,0.0,0.0,26,0.00,CLR,FEW,0.00,WeatherDisplay:10.37,2013-01-24 19:43:00,
2013-01-24 13:48:00,18.7,-12.2,30.47,SE,135,0.7,3.5,24,0.00,CLR,FEW,0.00,WeatherDisplay:10.37,2013-01-24 19:48:00,
2013-01-24 13:54:00,17.8,-11.4,30.47,NE,45,0.7,5.8,26,0.00,CLR,FEW,0.00,WeatherDisplay:10.37,2013-01-24 19:54:00,
2013-01-24 14:00:00,18.0,-11.2,30.47,East,90,0.7,2.3,26,0.00,CLR,FEW,0.00,WeatherDisplay:10.37,2013-01-24 20:00:00,
2013-01-24 14:05:00,17.8,-12.2,30.46,SW,225,0.7,3.5,25,0.00,CLR,FEW,0.00,WeatherDisplay:10.37,2013-01-24 20:05:00,
2013-01-24 14:11:00,18.1,-11.9,30.45,NW,315,0.0,3.5,25,0.00,CLR,FEW,0.00,WeatherDisplay:10.37,2013-01-24 20:11:00,
2013-01-24 14:16:00,18.7,-11.4,30.45,SW,225,0.0,3.5,25,0.00,CLR,FEW,0.00,WeatherDisplay:10.37,2013-01-24 20:16:00,
2013-01-24 14:22:00,20.1,-10.1,30.45,SW,225,0.0,1.6,25,0.00,CLR,FEW,0.00,WeatherDisplay:10.37,2013-01-24 20:22:00,
2013-01-24 14:28:00,20.1,-10.1,30.46,SSE,158,0.7,5.8,25,0.00,CLR,FEW,0.00,WeatherDisplay:10.37,2013-01-24 20:28:00,
2013-01-24 14:33:00,19.8,-10.5,30.46,SE,135,0.7,3.5,25,0.00,CLR,FEW,0.00,WeatherDisplay:10.37,2013-01-24 20:33:00,
2013-01-24 14:39:00,19.6,-11.4,30.45,East,90,2.2,3.8,24,0.00,CLR,FEW,0.00,WeatherDisplay:10.37,2013-01-24 20:39:00,
2013-01-24 14:44:00,19.2,-10.9,30.44,East,90,0.0,5.8,25,0.00,CLR,FEW,0.00,WeatherDisplay:10.37,2013-01-24 20:44:00,
2013-01-24 14:50:00,19.2,-10.9,30.44,SE,135,3.1,4.6,25,0.00,CLR,FEW,0.00,WeatherDisplay:10.37,2013-01-24 20:50:00,
2013-01-24 14:56:00,19.0,-11.1,30.44,SE,135,2.2,3.8,25,0.00,CLR,FEW,0.00,WeatherDisplay:10.37,2013-01-24 20:56:00,
2013-01-24 15:01:00,19.0,-12.8,30.43,SE,135,2.2,3.5,23,0.00,CLR,FEW,0.00,WeatherDisplay:10.37,2013-01-24 21:01:00,
2013-01-24 15:07:00,19.0,-10.3,30.43,East,90,0.7,3.5,26,0.00,CLR,FEW,0.00,WeatherDisplay:10.37,2013-01-24 21:07:00,
2013-01-24 15:12:00,19.0,-10.3,30.43,SE,135,2.2,4.6,26,0.00,CLR,FEW,0.00,WeatherDisplay:10.37,2013-01-24 21:12:00,
2013-01-24 15:18:00,18.9,-12.9,30.42,East,90,3.1,4.6,23,0.00,CLR,FEW,0.00,WeatherDisplay:10.37,2013-01-24 21:18:00,
2013-01-24 15:24:00,18.7,-9.8,30.41,NE,45,3.8,6.9,27,0.00,CLR,FEW,0.00,WeatherDisplay:10.37,2013-01-24 21:24:00,
2013-01-24 15:29:00,18.7,-9.1,30.41,ENE,68,0.7,5.8,28,0.00,CLR,FEW,0.00,WeatherDisplay:10.37,2013-01-24 21:29:00,
2013-01-24 15:35:00,18.9,-8.9,30.40,East,90,3.8,5.8,28,0.00,CLR,FEW,0.00,WeatherDisplay:10.37,2013-01-24 21:35:00,
2013-01-24 15:40:00,18.9,-12.9,30.40,North,0,1.6,5.8,23,0.00,CLR,FEW,0.00,WeatherDisplay:10.37,2013-01-24 21:40:00,
2013-01-24 15:46:00,18.9,-12.9,30.40,East,90,1.6,8.1,23,0.00,CLR,FEW,0.00,WeatherDisplay:10.37,2013-01-24 21:46:00,
2013-01-24 15:52:00,18.9,-12.9,30.40,East,90,0.7,3.5,23,0.00,CLR,FEW,0.00,WeatherDisplay:10.37,2013-01-24 21:52:00,
2013-01-24 15:57:00,18.9,-12.9,30.41,NE,45,2.2,5.8,23,0.00,CLR,FEW,0.00,WeatherDisplay:10.37,2013-01-24 21:57:00,
2013-01-24 16:03:00,18.9,-9.7,30.41,East,90,2.2,5.8,27,0.00,CLR,FEW,0.00,WeatherDisplay:10.37,2013-01-24 22:03:00,
2013-01-24 16:08:00,19.0,-9.5,30.41,East,90,2.2,5.8,27,0.00,CLR,FEW,0.00,WeatherDisplay:10.37,2013-01-24 22:08:00,
2013-01-24 16:14:00,19.0,-9.5,30.40,SE,135,0.0,2.3,27,0.00,CLR,FEW,0.00,WeatherDisplay:10.37,2013-01-24 22:14:00,
2013-01-24 16:20:00,19.0,-7.4,30.38,NE,45,0.0,4.6,30,0.00,CLR,FEW,0.00,WeatherDisplay:10.37,2013-01-24 22:20:00,
2013-01-24 16:25:00,19.0,-9.5,30.38,NE,45,2.2,5.8,27,0.00,CLR,FEW,0.00,WeatherDisplay:10.37,2013-01-24 22:25:00,
2013-01-24 16:31:00,19.0,-9.5,30.39,SE,135,2.2,3.5,27,0.00,CLR,FEW,0.00,WeatherDisplay:10.37,2013-01-24 22:31:00,
2013-01-24 16:36:00,19.0,-6.7,30.38,SE,135,0.0,2.3,31,0.00,CLR,FEW,0.00,WeatherDisplay:10.37,2013-01-24 22:36:00,
2013-01-24 16:42:00,19.0,-9.5,30.38,East,90,1.6,3.5,27,0.00,CLR,FEW,0.00,WeatherDisplay:10.37,2013-01-24 22:42:00,
2013-01-24 16:48:00,19.0,-6.7,30.37,NE,45,0.0,5.8,31,0.00,CLR,FEW,0.00,WeatherDisplay:10.37,2013-01-24 22:48:00,
2013-01-24 16:53:00,19.0,-6.7,30.37,East,90,0.0,5.8,31,0.00,CLR,FEW,0.00,WeatherDisplay:10.37,2013-01-24 22:53:00,
2013-01-24 16:59:00,18.9,-9.7,30.37,East,90,0.7,5.8,27,0.00,CLR,FEW,0.00,WeatherDisplay:10.37,2013-01-24 22:59:00,
2013-01-24 17:04:00,19.0,-6.0,30.37,East,90,0.7,2.2,32,0.00,CLR,FEW,0.00,WeatherDisplay:10.37,2013-01-24 23:04:00,
2013-01-24 17:10:00,19.2,-6.5,30.37,East,90,3.1,6.9,31,0.00,CLR,FEW,0.00,WeatherDisplay:10.37,2013-01-24 23:10:00,
2013-01-24 17:16:00,19.4,-6.4,30.37,SE,135,0.0,5.8,31,0.00,CLR,FEW,0.00,WeatherDisplay:10.37,2013-01-24 23:16:00,
2013-01-24 17:21:00,19.6,-6.2,30.37,East,90,2.2,5.8,31,0.00,CLR,FEW,0.00,WeatherDisplay:10.37,2013-01-24 23:21:00,
2013-01-24 17:27:00,19.6,-6.2,30.37,East,90,1.6,4.6,31,0.00,CLR,FEW,0.00,WeatherDisplay:10.37,2013-01-24 23:27:00,
2013-01-24 17:32:00,19.6,-5.6,30.37,SE,135,2.2,5.8,32,0.00,CLR,FEW,0.00,WeatherDisplay:10.37,2013-01-24 23:32:00,
2013-01-24 17:38:00,19.6,-6.2,30.36,East,90,1.6,4.6,31,0.00,CLR,FEW,0.00,WeatherDisplay:10.37,2013-01-24 23:38:00,
2013-01-24 17:44:00,19.6,-6.2,30.36,SE,135,3.1,5.8,31,0.00,CLR,FEW,0.00,WeatherDisplay:10.37,2013-01-24 23:44:00,
2013-01-24 17:49:00,19.4,-5.7,30.36,SE,135,2.2,5.8,32,0.00,CLR,FEW,0.00,WeatherDisplay:10.37,2013-01-24 23:49:00,
2013-01-24 17:55:00,19.4,-6.4,30.36,SE,135,0.7,9.2,31,0.00,CLR,FEW,0.00,WeatherDisplay:10.37,2013-01-24 23:55:00,
2013-01-24 18:00:00,19.4,-5.1,30.36,East,90,3.8,6.9,33,0.00,CLR,FEW,0.00,WeatherDisplay:10.37,2013-01-25 00:00:00,
2013-01-24 18:06:00,19.2,-6.5,30.36,South,180,3.1,6.9,31,0.00,CLR,FEW,0.00,WeatherDisplay:10.37,2013-01-25 00:06:00,
2013-01-24 18:12:00,19.2,-6.5,30.36,SE,135,0.7,5.8,31,0.00,CLR,FEW,0.00,WeatherDisplay:10.37,2013-01-25 00:12:00,
2013-01-24 18:17:00,19.0,-6.7,30.36,South,180,1.6,5.8,31,0.00,CLR,FEW,0.00,WeatherDisplay:10.37,2013-01-25 00:17:00,
2013-01-24 18:23:00,19.0,-3.6,30.34,East,90,2.2,3.5,36,0.00,CLR,FEW,0.00,WeatherDisplay:10.37,2013-01-25 00:23:00,
2013-01-24 18:28:00,19.0,-6.7,30.35,SE,135,2.2,4.6,31,0.00,CLR,FEW,0.00,WeatherDisplay:10.37,2013-01-25 00:28:00,
2013-01-24 18:34:00,19.0,-6.7,30.35,East,90,1.6,4.6,31,0.00,CLR,FEW,0.00,WeatherDisplay:10.37,2013-01-25 00:34:00,
2013-01-24 18:40:00,19.0,-6.7,30.35,North,0,0.0,2.3,31,0.00,CLR,FEW,0.00,WeatherDisplay:10.37,2013-01-25 00:40:00,
2013-01-24 18:45:00,19.0,-6.7,30.34,East,90,2.2,8.1,31,0.00,CLR,FEW,0.00,WeatherDisplay:10.37,2013-01-25 00:45:00,
2013-01-24 18:51:00,19.0,-6.7,30.35,NE,45,1.6,3.8,31,0.00,CLR,FEW,0.00,WeatherDisplay:10.37,2013-01-25 00:51:00,
2013-01-24 18:56:00,19.0,-3.0,30.35,East,90,1.6,4.5,37,0.00,CLR,FEW,0.00,WeatherDisplay:10.37,2013-01-25 00:56:00,
2013-01-24 19:02:00,19.0,-6.7,30.34,SW,225,0.0,5.8,31,0.00,CLR,FEW,0.00,WeatherDisplay:10.37,2013-01-25 01:02:00,
2013-01-24 19:08:00,19.0,-2.4,30.34,SE,135,2.2,4.5,38,0.00,CLR,FEW,0.00,WeatherDisplay:10.37,2013-01-25 01:08:00,
2013-01-24 19:13:00,19.0,-6.7,30.35,SE,135,0.0,2.3,31,0.00,CLR,FEW,0.00,WeatherDisplay:10.37,2013-01-25 01:13:00,
2013-01-24 19:19:00,19.0,-1.9,30.34,SE,135,0.0,1.1,39,0.00,CLR,FEW,0.00,WeatherDisplay:10.37,2013-01-25 01:19:00,
2013-01-24 19:24:00,19.0,-6.7,30.33,South,180,0.0,0.0,31,0.00,CLR,FEW,0.00,WeatherDisplay:10.37,2013-01-25 01:24:00,
2013-01-24 19:30:00,19.0,-6.7,30.32,East,90,0.7,3.5,31,0.00,CLR,FEW,0.00,WeatherDisplay:10.37,2013-01-25 01:30:00,
2013-01-24 19:36:00,18.9,-1.5,30.31,SE,135,2.2,4.5,40,0.00,CLR,FEW,0.00,WeatherDisplay:10.37,2013-01-25 01:36:00,
2013-01-24 19:41:00,18.9,-1.5,30.30,NE,45,0.0,4.6,40,0.00,CLR,FEW,0.00,WeatherDisplay:10.37,2013-01-25 01:41:00,
2013-01-24 19:47:00,18.9,-6.8,30.31,SE,135,2.2,4.6,31,0.00,CLR,FEW,0.00,WeatherDisplay:10.37,2013-01-25 01:47:00,
2013-01-24 19:52:00,18.9,-6.8,30.30,East,90,0.0,0.0,31,0.00,CLR,FEW,0.00,WeatherDisplay:10.37,2013-01-25 01:52:00,
2013-01-24 19:58:00,19.0,-6.7,30.30,East,90,0.0,3.5,31,0.00,CLR,FEW,0.00,WeatherDisplay:10.37,2013-01-25 01:58:00,
2013-01-24 20:04:00,18.9,-2.6,30.30,SE,135,0.7,4.6,38,0.00,CLR,FEW,0.00,WeatherDisplay:10.37,2013-01-25 02:04:00,
2013-01-24 20:09:00,19.0,-0.8,30.30,East,90,1.6,3.5,41,0.00,CLR,FEW,0.00,WeatherDisplay:10.37,2013-01-25 02:09:00,
2013-01-24 20:15:00,19.0,-2.4,30.30,NE,45,1.6,4.6,38,0.00,CLR,FEW,0.00,WeatherDisplay:10.37,2013-01-25 02:15:00,
2013-01-24 20:20:00,19.0,-0.3,30.30,East,90,0.0,1.6,42,0.00,CLR,FEW,0.00,WeatherDisplay:10.37,2013-01-25 02:20:00,
2013-01-24 20:26:00,19.0,-2.4,30.30,NE,45,0.0,2.3,38,0.00,CLR,FEW,0.00,WeatherDisplay:10.37,2013-01-25 02:26:00,
2013-01-24 20:32:00,19.2,-2.3,30.30,East,90,0.7,2.3,38,0.00,CLR,FEW,0.00,WeatherDisplay:10.37,2013-01-25 02:32:00,
2013-01-24 20:37:00,19.2,-2.3,30.29,East,90,1.6,6.9,38,0.00,CLR,FEW,0.00,WeatherDisplay:10.37,2013-01-25 02:37:00,
2013-01-24 20:43:00,19.2,-0.2,30.28,East,90,1.6,0.0,42,0.00,CLR,FEW,0.00,WeatherDisplay:10.37,2013-01-25 02:43:00,
2013-01-24 20:48:00,19.2,-2.3,30.28,East,90,0.7,3.5,38,0.00,CLR,FEW,0.00,WeatherDisplay:10.37,2013-01-25 02:48:00,
2013-01-24 20:54:00,19.4,-2.1,30.29,East,90,1.6,4.6,38,0.00,CLR,FEW,0.00,WeatherDisplay:10.37,2013-01-25 02:54:00,
2013-01-24 21:00:00,19.4,-2.1,30.30,NE,45,0.0,3.5,38,0.00,CLR,FEW,0.00,WeatherDisplay:10.37,2013-01-25 03:00:00,
2013-01-24 21:05:00,19.4,1.0,30.29,SE,135,0.7,2.3,44,0.00,CLR,FEW,0.00,WeatherDisplay:10.37,2013-01-25 03:05:00,
2013-01-24 21:11:00,19.6,1.2,30.30,NE,45,0.7,3.1,44,0.00,CLR,FEW,0.00,WeatherDisplay:10.37,2013-01-25 03:11:00,
2013-01-24 21:16:00,19.6,1.2,30.30,East,90,0.7,3.1,44,0.00,CLR,FEW,0.00,WeatherDisplay:10.37,2013-01-25 03:16:00,
2013-01-24 21:22:00,19.6,-0.3,30.29,SE,135,0.7,2.3,41,0.00,CLR,FEW,0.00,WeatherDisplay:10.37,2013-01-25 03:22:00,
2013-01-24 21:28:00,19.8,1.3,30.29,East,90,0.0,0.0,44,0.00,CLR,FEW,0.00,WeatherDisplay:10.37,2013-01-25 03:28:00,
2013-01-24 21:33:00,19.8,-0.2,30.29,East,90,0.7,3.5,41,0.00,CLR,FEW,0.00,WeatherDisplay:10.37,2013-01-25 03:33:00,
2013-01-24 21:39:00,19.8,1.3,30.28,East,90,0.0,2.3,44,0.00,CLR,FEW,0.00,WeatherDisplay:10.37,2013-01-25 03:39:00,
2013-01-24 21:44:00,19.8,-0.2,30.27,East,90,0.0,4.6,41,0.00,CLR,FEW,0.00,WeatherDisplay:10.37,2013-01-25 03:44:00,
2013-01-24 21:50:00,19.8,-0.2,30.28,SE,135,2.2,5.8,41,0.00,CLR,FEW,0.00,WeatherDisplay:10.37,2013-01-25 03:50:00,
2013-01-24 21:56:00,19.9,0.0,30.27,SE,135,0.0,5.8,41,0.00,CLR,FEW,0.00,WeatherDisplay:10.37,2013-01-25 03:56:00,
2013-01-24 22:01:00,19.9,0.0,30.27,SE,135,0.0,3.5,41,0.00,CLR,FEW,0.00,WeatherDisplay:10.37,2013-01-25 04:01:00,
2013-01-24 22:07:00,20.1,0.1,30.26,East,90,0.7,2.3,41,0.00,CLR,FEW,0.00,WeatherDisplay:10.37,2013-01-25 04:07:00,
2013-01-24 22:12:00,20.1,0.1,30.25,East,90,1.6,3.5,41,0.00,CLR,FEW,0.00,WeatherDisplay:10.37,2013-01-25 04:12:00,
2013-01-24 22:18:00,20.1,0.1,30.26,NW,315,0.0,2.3,41,0.00,CLR,FEW,0.00,WeatherDisplay:10.37,2013-01-25 04:18:00,
2013-01-24 22:24:00,20.1,1.7,30.25,South,180,3.1,5.8,44,0.00,CLR,FEW,0.00,WeatherDisplay:10.37,2013-01-25 04:24:00,
2013-01-24 22:29:00,20.1,0.1,30.25,SE,135,3.8,6.9,41,0.00,CLR,FEW,0.00,WeatherDisplay:10.37,2013-01-25 04:29:00,
2013-01-24 22:35:00,20.3,0.3,30.26,East,90,3.1,6.0,41,0.00,CLR,FEW,0.00,WeatherDisplay:10.37,2013-01-25 04:35:00,
2013-01-24 22:40:00,20.3,1.8,30.25,South,180,1.6,5.8,44,0.00,CLR,FEW,0.00,WeatherDisplay:10.37,2013-01-25 04:40:00,
2013-01-24 22:46:00,20.5,0.5,30.25,SE,135,0.7,6.9,41,0.00,CLR,FEW,0.00,WeatherDisplay:10.37,2013-01-25 04:46:00,
2013-01-24 22:52:00,20.5,0.5,30.25,East,90,1.6,3.5,41,0.00,CLR,FEW,0.00,WeatherDisplay:10.37,2013-01-25 04:52:00,
2013-01-24 22:57:00,20.7,0.6,30.25,SE,135,3.1,8.1,41,0.00,CLR,FEW,0.00,WeatherDisplay:10.37,2013-01-25 04:57:00,
2013-01-24 23:00:00,20.7,0.6,30.25,South,180,0.7,8.1,41,0.00,CLR,FEW,0.00,WeatherDisplay:10.37,2013-01-25 05:00:00,
2013-01-24 23:01:00,20.7,2.2,30.24,East,90,3.1,5.4,44,0.00,CLR,FEW,0.00,WeatherDisplay:10.37,2013-01-25 05:01:00,
2013-01-24 23:03:00,20.7,1.7,30.24,SSE,158,3.1,6.0,43,0.00,CLR,FEW,0.00,WeatherDisplay:10.37,2013-01-25 05:03:00,
2013-01-24 23:08:00,20.8,-0.8,30.24,East,90,2.2,5.8,38,0.00,CLR,FEW,0.00,WeatherDisplay:10.37,2013-01-25 05:08:00,
2013-01-24 23:14:00,20.8,-0.8,30.22,NW,315,2.2,5.8,38,0.00,CLR,FEW,0.00,WeatherDisplay:10.37,2013-01-25 05:14:00,
2013-01-24 23:20:00,21.0,1.5,30.22,NE,45,3.1,7.6,42,0.00,CLR,FEW,0.00,WeatherDisplay:10.37,2013-01-25 05:20:00,
2013-01-24 23:25:00,21.0,2.0,30.23,SE,135,0.7,5.8,43,0.00,CLR,FEW,0.00,WeatherDisplay:10.37,2013-01-25 05:25:00,
2013-01-24 23:31:00,21.0,1.5,30.23,East,90,2.2,5.8,42,0.00,CLR,FEW,0.00,WeatherDisplay:10.37,2013-01-25 05:31:00,
2013-01-24 23:36:00,21.2,1.6,30.23,East,90,2.2,5.4,42,0.00,CLR,FEW,0.00,WeatherDisplay:10.37,2013-01-25 05:36:00,
2013-01-24 23:42:00,21.2,-0.5,30.22,East,90,0.7,3.5,38,0.00,CLR,FEW,0.00,WeatherDisplay:10.37,2013-01-25 05:42:00,
2013-01-24 23:48:00,21.2,1.6,30.22,South,180,0.0,0.0,42,0.00,CLR,FEW,0.00,WeatherDisplay:10.37,2013-01-25 05:48:00,
2013-01-24 23:53:00,21.4,-0.3,30.21,East,90,3.1,5.8,38,0.00,CLR,FEW,0.00,WeatherDisplay:10.37,2013-01-25 05:53:00,
2013-01-24 23:59:00,21.4,1.8,30.21,South,180,1.6,5.8,42,0.00,CLR,FEW,0.00,WeatherDisplay:10.37,2013-01-25 05:59:00,